sensor_id;sensor_type;location;lat;lon;timestamp;P1;durP1;ratioP1;P2;durP2;ratioP2
57309;SDS011;43153;50.984;18.204;2023-02-19T00:01:27;19.80;;;7.80;;
57309;SDS011;43153;50.984;18.204;2023-02-19T00:04:16;15.80;;;6.70;;
57309;SDS011;43153;50.984;18.204;2023-02-19T00:06:47;19.00;;;8.90;;
57309;SDS011;43153;50.984;18.204;2023-02-19T00:09:14;20.10;;;8.10;;
57309;SDS011;43153;50.984;18.204;2023-02-19T00:12:05;19.00;;;8.80;;
57309;SDS011;43153;50.984;18.204;2023-02-19T00:14:31;18.50;;;8.30;;
57309;SDS011;43153;50.984;18.204;2023-02-19T00:17:01;19.50;;;7.70;;
57309;SDS011;43153;50.984;18.204;2023-02-19T00:19:32;18.40;;;8.40;;
57309;SDS011;43153;50.984;18.204;2023-02-19T00:22:03;20.10;;;9.50;;
57309;SDS011;43153;50.984;18.204;2023-02-19T00:24:29;19.60;;;9.90;;
57309;SDS011;43153;50.984;18.204;2023-02-19T00:27:00;17.90;;;9.20;;
57309;SDS011;43153;50.984;18.204;2023-02-19T00:29:32;17.70;;;7.70;;
57309;SDS011;43153;50.984;18.204;2023-02-19T00:31:59;15.00;;;6.80;;
57309;SDS011;43153;50.984;18.204;2023-02-19T00:34:30;19.10;;;7.60;;
57309;SDS011;43153;50.984;18.204;2023-02-19T00:37:07;15.20;;;7.10;;
57309;SDS011;43153;50.984;18.204;2023-02-19T00:39:33;12.30;;;5.30;;
57309;SDS011;43153;50.984;18.204;2023-02-19T00:42:00;12.70;;;5.20;;
57309;SDS011;43153;50.984;18.204;2023-02-19T00:44:26;10.70;;;4.20;;
57309;SDS011;43153;50.984;18.204;2023-02-19T00:46:57;9.40;;;3.80;;
57309;SDS011;43153;50.984;18.204;2023-02-19T00:49:23;7.50;;;3.20;;
57309;SDS011;43153;50.984;18.204;2023-02-19T00:51:55;8.50;;;3.00;;
57309;SDS011;43153;50.984;18.204;2023-02-19T00:54:25;7.20;;;3.00;;
57309;SDS011;43153;50.984;18.204;2023-02-19T00:56:56;7.00;;;2.90;;
57309;SDS011;43153;50.984;18.204;2023-02-19T00:59:28;8.50;;;3.40;;
57309;SDS011;43153;50.984;18.204;2023-02-19T01:02:03;7.90;;;2.50;;
57309;SDS011;43153;50.984;18.204;2023-02-19T01:04:34;7.90;;;2.90;;
57309;SDS011;43153;50.984;18.204;2023-02-19T01:07:05;7.60;;;3.10;;
57309;SDS011;43153;50.984;18.204;2023-02-19T01:09:47;5.50;;;2.30;;
57309;SDS011;43153;50.984;18.204;2023-02-19T01:12:21;8.80;;;2.80;;
57309;SDS011;43153;50.984;18.204;2023-02-19T01:14:56;8.50;;;3.60;;
57309;SDS011;43153;50.984;18.204;2023-02-19T01:17:24;7.40;;;2.90;;
57309;SDS011;43153;50.984;18.204;2023-02-19T01:19:51;8.40;;;3.10;;
57309;SDS011;43153;50.984;18.204;2023-02-19T01:22:20;6.70;;;3.10;;
57309;SDS011;43153;50.984;18.204;2023-02-19T01:24:54;12.00;;;3.30;;
57309;SDS011;43153;50.984;18.204;2023-02-19T01:27:34;8.90;;;3.80;;
57309;SDS011;43153;50.984;18.204;2023-02-19T01:30:03;8.90;;;3.90;;
57309;SDS011;43153;50.984;18.204;2023-02-19T01:32:35;10.70;;;4.70;;
57309;SDS011;43153;50.984;18.204;2023-02-19T01:35:05;11.00;;;5.40;;
57309;SDS011;43153;50.984;18.204;2023-02-19T01:37:50;21.90;;;10.30;;
57309;SDS011;43153;50.984;18.204;2023-02-19T01:40:19;15.60;;;8.00;;
57309;SDS011;43153;50.984;18.204;2023-02-19T01:42:48;13.40;;;5.80;;
57309;SDS011;43153;50.984;18.204;2023-02-19T01:47:56;12.70;;;5.00;;
57309;SDS011;43153;50.984;18.204;2023-02-19T01:50:29;10.80;;;4.60;;
57309;SDS011;43153;50.984;18.204;2023-02-19T01:53:00;11.80;;;5.00;;
57309;SDS011;43153;50.984;18.204;2023-02-19T01:55:32;10.70;;;4.50;;
57309;SDS011;43153;50.984;18.204;2023-02-19T01:58:00;9.80;;;4.10;;
57309;SDS011;43153;50.984;18.204;2023-02-19T02:00:31;9.90;;;3.50;;
57309;SDS011;43153;50.984;18.204;2023-02-19T02:03:06;8.70;;;3.50;;
57309;SDS011;43153;50.984;18.204;2023-02-19T02:05:55;9.10;;;3.80;;
57309;SDS011;43153;50.984;18.204;2023-02-19T02:08:27;10.90;;;3.80;;
57309;SDS011;43153;50.984;18.204;2023-02-19T02:11:14;14.10;;;4.70;;
57309;SDS011;43153;50.984;18.204;2023-02-19T02:13:41;12.90;;;4.60;;
57309;SDS011;43153;50.984;18.204;2023-02-19T02:22:18;13.00;;;4.30;;
57309;SDS011;43153;50.984;18.204;2023-02-19T03:03:19;6.20;;;2.80;;
57309;SDS011;43153;50.984;18.204;2023-02-19T03:05:49;10.00;;;3.80;;
57309;SDS011;43153;50.984;18.204;2023-02-19T03:08:35;8.40;;;3.20;;
57309;SDS011;43153;50.984;18.204;2023-02-19T03:11:13;8.70;;;4.20;;
57309;SDS011;43153;50.984;18.204;2023-02-19T03:14:15;10.20;;;4.40;;
57309;SDS011;43153;50.984;18.204;2023-02-19T03:17:15;10.50;;;4.10;;
57309;SDS011;43153;50.984;18.204;2023-02-19T03:20:10;10.30;;;4.80;;
57309;SDS011;43153;50.984;18.204;2023-02-19T03:22:41;10.80;;;4.60;;
57309;SDS011;43153;50.984;18.204;2023-02-19T03:25:13;10.50;;;5.20;;
57309;SDS011;43153;50.984;18.204;2023-02-19T03:28:02;10.30;;;4.20;;
57309;SDS011;43153;50.984;18.204;2023-02-19T03:30:42;11.60;;;4.80;;
57309;SDS011;43153;50.984;18.204;2023-02-19T03:33:13;12.50;;;5.10;;
57309;SDS011;43153;50.984;18.204;2023-02-19T03:35:48;13.80;;;5.80;;
57309;SDS011;43153;50.984;18.204;2023-02-19T03:41:22;13.20;;;5.10;;
57309;SDS011;43153;50.984;18.204;2023-02-19T03:44:22;12.70;;;5.60;;
57309;SDS011;43153;50.984;18.204;2023-02-19T03:47:13;12.60;;;6.50;;
57309;SDS011;43153;50.984;18.204;2023-02-19T04:06:04;9.10;;;3.80;;
57309;SDS011;43153;50.984;18.204;2023-02-19T04:08:35;8.90;;;4.00;;
57309;SDS011;43153;50.984;18.204;2023-02-19T04:11:01;10.30;;;4.20;;
57309;SDS011;43153;50.984;18.204;2023-02-19T04:14:17;9.10;;;3.70;;
57309;SDS011;43153;50.984;18.204;2023-02-19T04:16:22;9.40;;;3.80;;
57309;SDS011;43153;50.984;18.204;2023-02-19T04:18:53;8.40;;;3.20;;
57309;SDS011;43153;50.984;18.204;2023-02-19T04:21:22;9.10;;;3.70;;
57309;SDS011;43153;50.984;18.204;2023-02-19T04:23:49;9.20;;;3.60;;
57309;SDS011;43153;50.984;18.204;2023-02-19T04:26:19;8.20;;;2.70;;
57309;SDS011;43153;50.984;18.204;2023-02-19T04:28:53;7.20;;;3.40;;
57309;SDS011;43153;50.984;18.204;2023-02-19T04:31:21;7.80;;;3.50;;
57309;SDS011;43153;50.984;18.204;2023-02-19T04:33:47;9.40;;;3.20;;
57309;SDS011;43153;50.984;18.204;2023-02-19T04:38:45;8.30;;;3.60;;
57309;SDS011;43153;50.984;18.204;2023-02-19T04:41:11;8.60;;;3.20;;
57309;SDS011;43153;50.984;18.204;2023-02-19T04:43:53;8.10;;;3.40;;
57309;SDS011;43153;50.984;18.204;2023-02-19T04:46:20;8.00;;;3.40;;
57309;SDS011;43153;50.984;18.204;2023-02-19T04:48:51;7.30;;;3.20;;
57309;SDS011;43153;50.984;18.204;2023-02-19T04:51:24;9.10;;;3.40;;
57309;SDS011;43153;50.984;18.204;2023-02-19T04:53:59;8.80;;;3.90;;
57309;SDS011;43153;50.984;18.204;2023-02-19T04:56:25;8.60;;;3.60;;
57309;SDS011;43153;50.984;18.204;2023-02-19T04:58:56;10.10;;;4.80;;
57309;SDS011;43153;50.984;18.204;2023-02-19T05:01:27;11.70;;;5.60;;
57309;SDS011;43153;50.984;18.204;2023-02-19T05:03:55;14.80;;;6.70;;
57309;SDS011;43153;50.984;18.204;2023-02-19T05:06:32;11.10;;;5.30;;
57309;SDS011;43153;50.984;18.204;2023-02-19T05:09:02;8.60;;;3.80;;
57309;SDS011;43153;50.984;18.204;2023-02-19T05:11:32;8.30;;;3.40;;
57309;SDS011;43153;50.984;18.204;2023-02-19T05:13:59;12.10;;;4.00;;
57309;SDS011;43153;50.984;18.204;2023-02-19T05:16:33;7.80;;;3.10;;
57309;SDS011;43153;50.984;18.204;2023-02-19T05:19:03;5.30;;;2.60;;
57309;SDS011;43153;50.984;18.204;2023-02-19T05:21:30;8.20;;;3.40;;
57309;SDS011;43153;50.984;18.204;2023-02-19T05:23:59;7.60;;;2.30;;
57309;SDS011;43153;50.984;18.204;2023-02-19T05:26:33;4.80;;;1.90;;
57309;SDS011;43153;50.984;18.204;2023-02-19T05:29:04;4.50;;;1.80;;
57309;SDS011;43153;50.984;18.204;2023-02-19T05:31:37;5.90;;;2.20;;
57309;SDS011;43153;50.984;18.204;2023-02-19T05:34:09;12.50;;;3.50;;
57309;SDS011;43153;50.984;18.204;2023-02-19T05:36:52;7.40;;;3.40;;
57309;SDS011;43153;50.984;18.204;2023-02-19T05:39:20;11.80;;;4.60;;
57309;SDS011;43153;50.984;18.204;2023-02-19T05:41:48;11.10;;;4.20;;
57309;SDS011;43153;50.984;18.204;2023-02-19T05:44:18;11.10;;;4.50;;
57309;SDS011;43153;50.984;18.204;2023-02-19T05:46:44;11.90;;;5.30;;
57309;SDS011;43153;50.984;18.204;2023-02-19T05:49:19;12.60;;;5.00;;
57309;SDS011;43153;50.984;18.204;2023-02-19T05:51:45;16.90;;;5.70;;
57309;SDS011;43153;50.984;18.204;2023-02-19T05:54:19;11.10;;;4.40;;
57309;SDS011;43153;50.984;18.204;2023-02-19T05:56:53;11.80;;;4.20;;
57309;SDS011;43153;50.984;18.204;2023-02-19T05:59:27;10.60;;;4.60;;
57309;SDS011;43153;50.984;18.204;2023-02-19T06:01:58;11.90;;;4.60;;
57309;SDS011;43153;50.984;18.204;2023-02-19T06:04:24;10.80;;;4.20;;
57309;SDS011;43153;50.984;18.204;2023-02-19T06:06:56;13.00;;;5.60;;
57309;SDS011;43153;50.984;18.204;2023-02-19T06:09:31;11.30;;;4.70;;
57309;SDS011;43153;50.984;18.204;2023-02-19T06:12:03;12.00;;;5.40;;
57309;SDS011;43153;50.984;18.204;2023-02-19T06:14:34;11.70;;;5.20;;
57309;SDS011;43153;50.984;18.204;2023-02-19T06:19:35;14.00;;;5.40;;
57309;SDS011;43153;50.984;18.204;2023-02-19T06:22:04;13.20;;;5.60;;
57309;SDS011;43153;50.984;18.204;2023-02-19T06:24:30;13.00;;;4.90;;
57309;SDS011;43153;50.984;18.204;2023-02-19T06:26:58;14.70;;;6.00;;
57309;SDS011;43153;50.984;18.204;2023-02-19T06:29:24;13.60;;;6.20;;
57309;SDS011;43153;50.984;18.204;2023-02-19T06:31:54;13.30;;;6.10;;
57309;SDS011;43153;50.984;18.204;2023-02-19T06:34:22;15.50;;;6.70;;
57309;SDS011;43153;50.984;18.204;2023-02-19T06:36:54;16.20;;;7.50;;
57309;SDS011;43153;50.984;18.204;2023-02-19T06:39:23;13.90;;;6.30;;
57309;SDS011;43153;50.984;18.204;2023-02-19T06:41:50;16.00;;;7.10;;
57309;SDS011;43153;50.984;18.204;2023-02-19T06:44:23;15.70;;;7.50;;
57309;SDS011;43153;50.984;18.204;2023-02-19T06:46:50;15.60;;;6.10;;
57309;SDS011;43153;50.984;18.204;2023-02-19T06:49:19;16.50;;;6.60;;
57309;SDS011;43153;50.984;18.204;2023-02-19T06:51:45;13.60;;;6.20;;
57309;SDS011;43153;50.984;18.204;2023-02-19T06:54:19;13.50;;;5.10;;
57309;SDS011;43153;50.984;18.204;2023-02-19T06:59:24;13.10;;;5.80;;
57309;SDS011;43153;50.984;18.204;2023-02-19T07:01:51;13.90;;;5.60;;
57309;SDS011;43153;50.984;18.204;2023-02-19T07:04:20;18.00;;;8.20;;
57309;SDS011;43153;50.984;18.204;2023-02-19T07:06:49;19.20;;;9.50;;
57309;SDS011;43153;50.984;18.204;2023-02-19T07:09:15;22.50;;;10.20;;
57309;SDS011;43153;50.984;18.204;2023-02-19T07:11:44;24.10;;;10.10;;
57309;SDS011;43153;50.984;18.204;2023-02-19T07:14:16;21.30;;;10.20;;
57309;SDS011;43153;50.984;18.204;2023-02-19T07:16:43;17.30;;;7.80;;
57309;SDS011;43153;50.984;18.204;2023-02-19T07:19:17;19.10;;;7.70;;
57309;SDS011;43153;50.984;18.204;2023-02-19T07:21:43;18.00;;;7.30;;
57309;SDS011;43153;50.984;18.204;2023-02-19T07:24:10;17.10;;;7.10;;
57309;SDS011;43153;50.984;18.204;2023-02-19T07:26:36;16.60;;;7.70;;
57309;SDS011;43153;50.984;18.204;2023-02-19T07:29:02;13.40;;;6.00;;
57309;SDS011;43153;50.984;18.204;2023-02-19T07:31:29;13.40;;;5.50;;
57309;SDS011;43153;50.984;18.204;2023-02-19T07:33:54;12.80;;;5.30;;
57309;SDS011;43153;50.984;18.204;2023-02-19T07:36:21;12.70;;;4.90;;
57309;SDS011;43153;50.984;18.204;2023-02-19T07:38:55;15.00;;;5.70;;
57309;SDS011;43153;50.984;18.204;2023-02-19T07:41:25;10.80;;;3.40;;
57309;SDS011;43153;50.984;18.204;2023-02-19T07:43:57;12.40;;;4.00;;
57309;SDS011;43153;50.984;18.204;2023-02-19T07:46:27;12.50;;;5.00;;
57309;SDS011;43153;50.984;18.204;2023-02-19T07:48:56;13.10;;;6.10;;
57309;SDS011;43153;50.984;18.204;2023-02-19T07:51:22;21.60;;;9.70;;
57309;SDS011;43153;50.984;18.204;2023-02-19T07:53:52;25.50;;;11.50;;
57309;SDS011;43153;50.984;18.204;2023-02-19T07:56:19;22.20;;;10.30;;
57309;SDS011;43153;50.984;18.204;2023-02-19T07:58:45;21.40;;;9.70;;
57309;SDS011;43153;50.984;18.204;2023-02-19T08:01:18;19.50;;;8.70;;
57309;SDS011;43153;50.984;18.204;2023-02-19T08:04:05;19.20;;;9.60;;
57309;SDS011;43153;50.984;18.204;2023-02-19T08:06:31;17.20;;;8.50;;
57309;SDS011;43153;50.984;18.204;2023-02-19T08:08:57;18.10;;;7.50;;
57309;SDS011;43153;50.984;18.204;2023-02-19T08:11:23;12.10;;;5.70;;
57309;SDS011;43153;50.984;18.204;2023-02-19T08:14:10;10.40;;;4.20;;
57309;SDS011;43153;50.984;18.204;2023-02-19T08:16:35;8.70;;;2.80;;
57309;SDS011;43153;50.984;18.204;2023-02-19T08:19:10;13.10;;;3.20;;
57309;SDS011;43153;50.984;18.204;2023-02-19T08:21:36;11.50;;;3.00;;
57309;SDS011;43153;50.984;18.204;2023-02-19T08:24:01;12.20;;;3.10;;
57309;SDS011;43153;50.984;18.204;2023-02-19T08:26:33;11.00;;;4.10;;
57309;SDS011;43153;50.984;18.204;2023-02-19T08:28:59;14.00;;;5.00;;
57309;SDS011;43153;50.984;18.204;2023-02-19T08:31:31;12.30;;;4.50;;
57309;SDS011;43153;50.984;18.204;2023-02-19T08:34:00;11.30;;;3.60;;
57309;SDS011;43153;50.984;18.204;2023-02-19T08:36:36;13.90;;;4.60;;
57309;SDS011;43153;50.984;18.204;2023-02-19T08:39:02;13.00;;;3.60;;
57309;SDS011;43153;50.984;18.204;2023-02-19T08:41:28;15.40;;;4.40;;
57309;SDS011;43153;50.984;18.204;2023-02-19T08:43:54;13.80;;;4.50;;
57309;SDS011;43153;50.984;18.204;2023-02-19T08:46:20;14.30;;;4.40;;
57309;SDS011;43153;50.984;18.204;2023-02-19T08:48:51;13.60;;;3.80;;
57309;SDS011;43153;50.984;18.204;2023-02-19T08:51:17;17.00;;;4.20;;
57309;SDS011;43153;50.984;18.204;2023-02-19T09:32:16;7.10;;;2.20;;
57309;SDS011;43153;50.984;18.204;2023-02-19T09:34:41;8.80;;;2.00;;
57309;SDS011;43153;50.984;18.204;2023-02-19T09:37:08;8.70;;;2.70;;
57309;SDS011;43153;50.984;18.204;2023-02-19T09:39:34;15.20;;;3.40;;
57309;SDS011;43153;50.984;18.204;2023-02-19T09:42:00;13.00;;;3.80;;
57309;SDS011;43153;50.984;18.204;2023-02-19T09:44:39;12.60;;;2.70;;
57309;SDS011;43153;50.984;18.204;2023-02-19T09:47:20;11.50;;;2.60;;
57309;SDS011;43153;50.984;18.204;2023-02-19T09:50:00;13.40;;;3.20;;
57309;SDS011;43153;50.984;18.204;2023-02-19T09:52:55;7.90;;;2.00;;
57309;SDS011;43153;50.984;18.204;2023-02-19T09:57:49;9.00;;;2.10;;
57309;SDS011;43153;50.984;18.204;2023-02-19T10:00:22;7.30;;;2.40;;
57309;SDS011;43153;50.984;18.204;2023-02-19T10:02:52;9.30;;;2.50;;
57309;SDS011;43153;50.984;18.204;2023-02-19T10:05:24;8.00;;;1.70;;
57309;SDS011;43153;50.984;18.204;2023-02-19T10:07:58;7.40;;;1.50;;
57309;SDS011;43153;50.984;18.204;2023-02-19T10:10:29;8.40;;;1.70;;
57309;SDS011;43153;50.984;18.204;2023-02-19T10:15:58;8.10;;;1.90;;
57309;SDS011;43153;50.984;18.204;2023-02-19T10:18:32;9.70;;;1.80;;
57309;SDS011;43153;50.984;18.204;2023-02-19T10:21:40;7.10;;;2.00;;
57309;SDS011;43153;50.984;18.204;2023-02-19T10:24:00;7.10;;;1.50;;
57309;SDS011;43153;50.984;18.204;2023-02-19T10:26:27;7.90;;;2.30;;
57309;SDS011;43153;50.984;18.204;2023-02-19T10:29:03;7.10;;;1.70;;
57309;SDS011;43153;50.984;18.204;2023-02-19T10:31:30;7.90;;;2.20;;
57309;SDS011;43153;50.984;18.204;2023-02-19T10:34:03;6.80;;;2.00;;
57309;SDS011;43153;50.984;18.204;2023-02-19T10:36:43;7.80;;;1.90;;
57309;SDS011;43153;50.984;18.204;2023-02-19T10:41:56;12.10;;;3.20;;
57309;SDS011;43153;50.984;18.204;2023-02-19T10:44:34;11.70;;;3.20;;
57309;SDS011;43153;50.984;18.204;2023-02-19T10:47:14;11.20;;;3.10;;
57309;SDS011;43153;50.984;18.204;2023-02-19T10:49:43;10.70;;;3.20;;
57309;SDS011;43153;50.984;18.204;2023-02-19T10:54:50;10.50;;;3.10;;
57309;SDS011;43153;50.984;18.204;2023-02-19T10:57:29;8.80;;;3.10;;
57309;SDS011;43153;50.984;18.204;2023-02-19T11:00:02;14.30;;;4.30;;
57309;SDS011;43153;50.984;18.204;2023-02-19T11:02:43;9.30;;;3.10;;
57309;SDS011;43153;50.984;18.204;2023-02-19T11:05:19;10.40;;;3.80;;
57309;SDS011;43153;50.984;18.204;2023-02-19T11:07:52;11.10;;;3.20;;
57309;SDS011;43153;50.984;18.204;2023-02-19T11:13:17;11.70;;;4.00;;
57309;SDS011;43153;50.984;18.204;2023-02-19T11:15:53;10.50;;;3.70;;
57309;SDS011;43153;50.984;18.204;2023-02-19T11:21:00;13.50;;;4.60;;
57309;SDS011;43153;50.984;18.204;2023-02-19T11:25:58;13.40;;;4.20;;
57309;SDS011;43153;50.984;18.204;2023-02-19T11:28:40;13.10;;;3.80;;
57309;SDS011;43153;50.984;18.204;2023-02-19T11:36:39;12.50;;;4.40;;
57309;SDS011;43153;50.984;18.204;2023-02-19T11:39:38;10.70;;;4.20;;
57309;SDS011;43153;50.984;18.204;2023-02-19T11:45:04;10.10;;;4.10;;
57309;SDS011;43153;50.984;18.204;2023-02-19T11:53:21;11.80;;;3.90;;
57309;SDS011;43153;50.984;18.204;2023-02-19T12:13:14;12.30;;;5.50;;
57309;SDS011;43153;50.984;18.204;2023-02-19T12:16:29;23.40;;;7.00;;
57309;SDS011;43153;50.984;18.204;2023-02-19T12:32:35;17.70;;;4.70;;
57309;SDS011;43153;50.984;18.204;2023-02-19T12:38:06;15.10;;;5.50;;
57309;SDS011;43153;50.984;18.204;2023-02-19T12:43:50;18.40;;;6.00;;
57309;SDS011;43153;50.984;18.204;2023-02-19T12:46:45;13.50;;;6.60;;
57309;SDS011;43153;50.984;18.204;2023-02-19T12:52:02;15.20;;;6.10;;
57309;SDS011;43153;50.984;18.204;2023-02-19T12:54:36;18.30;;;5.60;;
57309;SDS011;43153;50.984;18.204;2023-02-19T12:57:20;15.40;;;5.20;;
57309;SDS011;43153;50.984;18.204;2023-02-19T12:59:54;10.50;;;3.80;;
57309;SDS011;43153;50.984;18.204;2023-02-19T13:02:40;17.10;;;5.90;;
57309;SDS011;43153;50.984;18.204;2023-02-19T13:13:11;12.70;;;4.80;;
57309;SDS011;43153;50.984;18.204;2023-02-19T13:15:45;15.10;;;5.00;;
57309;SDS011;43153;50.984;18.204;2023-02-19T13:18:23;14.50;;;4.90;;
57309;SDS011;43153;50.984;18.204;2023-02-19T13:21:04;38.80;;;8.00;;
57309;SDS011;43153;50.984;18.204;2023-02-19T13:23:32;11.10;;;4.70;;
57309;SDS011;43153;50.984;18.204;2023-02-19T13:34:52;12.10;;;4.10;;
57309;SDS011;43153;50.984;18.204;2023-02-19T13:37:45;14.50;;;4.30;;
57309;SDS011;43153;50.984;18.204;2023-02-19T13:40:32;13.60;;;4.80;;
57309;SDS011;43153;50.984;18.204;2023-02-19T13:43:04;13.80;;;5.00;;
57309;SDS011;43153;50.984;18.204;2023-02-19T13:45:48;14.50;;;4.80;;
57309;SDS011;43153;50.984;18.204;2023-02-19T13:53:57;16.40;;;4.90;;
57309;SDS011;43153;50.984;18.204;2023-02-19T14:14:39;11.70;;;4.40;;
57309;SDS011;43153;50.984;18.204;2023-02-19T14:28:02;9.00;;;3.80;;
57309;SDS011;43153;50.984;18.204;2023-02-19T14:33:51;8.60;;;2.80;;
57309;SDS011;43153;50.984;18.204;2023-02-19T14:41:53;15.10;;;3.60;;
57309;SDS011;43153;50.984;18.204;2023-02-19T14:44:30;14.80;;;3.60;;
57309;SDS011;43153;50.984;18.204;2023-02-19T14:47:07;12.50;;;4.10;;
57309;SDS011;43153;50.984;18.204;2023-02-19T14:49:51;10.40;;;3.40;;
57309;SDS011;43153;50.984;18.204;2023-02-19T14:52:36;10.10;;;3.50;;
57309;SDS011;43153;50.984;18.204;2023-02-19T14:58:17;12.00;;;4.70;;
57309;SDS011;43153;50.984;18.204;2023-02-19T15:00:52;21.10;;;4.20;;
57309;SDS011;43153;50.984;18.204;2023-02-19T15:03:26;13.70;;;4.50;;
57309;SDS011;43153;50.984;18.204;2023-02-19T15:05:58;9.60;;;3.60;;
57309;SDS011;43153;50.984;18.204;2023-02-19T15:08:34;12.10;;;4.20;;
57309;SDS011;43153;50.984;18.204;2023-02-19T15:11:21;10.60;;;4.10;;
57309;SDS011;43153;50.984;18.204;2023-02-19T15:13:51;12.00;;;4.60;;
57309;SDS011;43153;50.984;18.204;2023-02-19T15:16:36;10.50;;;4.00;;
57309;SDS011;43153;50.984;18.204;2023-02-19T15:19:06;15.60;;;4.30;;
57309;SDS011;43153;50.984;18.204;2023-02-19T15:21:42;13.30;;;5.00;;
57309;SDS011;43153;50.984;18.204;2023-02-19T16:01:56;11.00;;;2.60;;
57309;SDS011;43153;50.984;18.204;2023-02-19T16:04:32;10.40;;;2.50;;
57309;SDS011;43153;50.984;18.204;2023-02-19T16:07:05;10.90;;;3.50;;
57309;SDS011;43153;50.984;18.204;2023-02-19T16:09:35;7.70;;;2.50;;
57309;SDS011;43153;50.984;18.204;2023-02-19T16:12:21;14.90;;;3.30;;
57309;SDS011;43153;50.984;18.204;2023-02-19T16:17:19;14.00;;;3.90;;
57309;SDS011;43153;50.984;18.204;2023-02-19T16:19:58;12.60;;;4.10;;
57309;SDS011;43153;50.984;18.204;2023-02-19T16:22:28;20.50;;;4.00;;
57309;SDS011;43153;50.984;18.204;2023-02-19T16:24:57;9.70;;;2.60;;
57309;SDS011;43153;50.984;18.204;2023-02-19T16:27:34;17.70;;;3.60;;
57309;SDS011;43153;50.984;18.204;2023-02-19T16:32:42;14.20;;;3.50;;
57309;SDS011;43153;50.984;18.204;2023-02-19T16:38:12;11.10;;;3.10;;
57309;SDS011;43153;50.984;18.204;2023-02-19T16:43:36;15.10;;;3.60;;
57309;SDS011;43153;50.984;18.204;2023-02-19T16:46:11;14.90;;;3.40;;
57309;SDS011;43153;50.984;18.204;2023-02-19T16:48:47;10.60;;;3.00;;
57309;SDS011;43153;50.984;18.204;2023-02-19T16:51:18;11.30;;;3.30;;
57309;SDS011;43153;50.984;18.204;2023-02-19T16:53:54;9.90;;;2.90;;
57309;SDS011;43153;50.984;18.204;2023-02-19T16:56:25;11.40;;;3.00;;
57309;SDS011;43153;50.984;18.204;2023-02-19T16:58:51;13.10;;;3.80;;
57309;SDS011;43153;50.984;18.204;2023-02-19T17:01:35;10.20;;;2.20;;
57309;SDS011;43153;50.984;18.204;2023-02-19T17:04:08;9.90;;;2.70;;
57309;SDS011;43153;50.984;18.204;2023-02-19T17:06:36;13.40;;;3.10;;
57309;SDS011;43153;50.984;18.204;2023-02-19T17:09:13;15.50;;;3.70;;
57309;SDS011;43153;50.984;18.204;2023-02-19T17:11:44;14.60;;;3.60;;
57309;SDS011;43153;50.984;18.204;2023-02-19T17:14:14;6.90;;;2.30;;
57309;SDS011;43153;50.984;18.204;2023-02-19T17:16:56;12.10;;;2.90;;
57309;SDS011;43153;50.984;18.204;2023-02-19T17:19:26;11.10;;;3.50;;
57309;SDS011;43153;50.984;18.204;2023-02-19T17:21:59;18.10;;;5.10;;
57309;SDS011;43153;50.984;18.204;2023-02-19T17:24:26;17.30;;;3.80;;
57309;SDS011;43153;50.984;18.204;2023-02-19T17:27:00;16.50;;;4.30;;
57309;SDS011;43153;50.984;18.204;2023-02-19T17:29:28;14.30;;;4.20;;
57309;SDS011;43153;50.984;18.204;2023-02-19T17:31:58;14.70;;;4.40;;
57309;SDS011;43153;50.984;18.204;2023-02-19T17:34:28;13.10;;;4.50;;
57309;SDS011;43153;50.984;18.204;2023-02-19T17:36:58;15.50;;;4.30;;
57309;SDS011;43153;50.984;18.204;2023-02-19T17:39:33;15.70;;;4.70;;
57309;SDS011;43153;50.984;18.204;2023-02-19T17:42:16;13.20;;;4.20;;
57309;SDS011;43153;50.984;18.204;2023-02-19T17:44:46;14.00;;;4.00;;
57309;SDS011;43153;50.984;18.204;2023-02-19T17:47:13;13.70;;;4.80;;
57309;SDS011;43153;50.984;18.204;2023-02-19T17:49:39;17.90;;;4.80;;
57309;SDS011;43153;50.984;18.204;2023-02-19T17:52:09;17.30;;;5.40;;
57309;SDS011;43153;50.984;18.204;2023-02-19T17:54:41;21.20;;;5.50;;
57309;SDS011;43153;50.984;18.204;2023-02-19T17:57:15;18.00;;;5.10;;
57309;SDS011;43153;50.984;18.204;2023-02-19T17:59:43;14.50;;;5.40;;
57309;SDS011;43153;50.984;18.204;2023-02-19T18:02:12;19.10;;;5.30;;
57309;SDS011;43153;50.984;18.204;2023-02-19T18:04:49;16.90;;;4.90;;
57309;SDS011;43153;50.984;18.204;2023-02-19T18:07:21;15.50;;;5.10;;
57309;SDS011;43153;50.984;18.204;2023-02-19T18:09:53;17.90;;;5.70;;
57309;SDS011;43153;50.984;18.204;2023-02-19T18:12:24;21.10;;;8.80;;
57309;SDS011;43153;50.984;18.204;2023-02-19T18:14:55;34.00;;;14.00;;
57309;SDS011;43153;50.984;18.204;2023-02-19T18:17:22;28.20;;;15.60;;
57309;SDS011;43153;50.984;18.204;2023-02-19T18:19:57;27.60;;;13.50;;
57309;SDS011;43153;50.984;18.204;2023-02-19T18:22:24;20.80;;;8.40;;
57309;SDS011;43153;50.984;18.204;2023-02-19T18:24:56;22.00;;;5.80;;
57309;SDS011;43153;50.984;18.204;2023-02-19T18:27:33;14.70;;;3.60;;
57309;SDS011;43153;50.984;18.204;2023-02-19T18:30:18;11.20;;;3.50;;
57309;SDS011;43153;50.984;18.204;2023-02-19T18:33:00;11.60;;;3.00;;
57309;SDS011;43153;50.984;18.204;2023-02-19T18:35:36;13.80;;;3.50;;
57309;SDS011;43153;50.984;18.204;2023-02-19T18:38:08;11.80;;;2.80;;
57309;SDS011;43153;50.984;18.204;2023-02-19T18:40:39;16.90;;;3.20;;
57309;SDS011;43153;50.984;18.204;2023-02-19T18:43:05;14.40;;;3.50;;
57309;SDS011;43153;50.984;18.204;2023-02-19T18:45:35;13.40;;;4.30;;
57309;SDS011;43153;50.984;18.204;2023-02-19T18:48:03;11.30;;;2.50;;
57309;SDS011;43153;50.984;18.204;2023-02-19T18:53:00;12.00;;;2.60;;
57309;SDS011;43153;50.984;18.204;2023-02-19T18:55:27;8.00;;;2.00;;
57309;SDS011;43153;50.984;18.204;2023-02-19T18:58:16;11.20;;;2.20;;
57309;SDS011;43153;50.984;18.204;2023-02-19T19:00:53;12.40;;;2.30;;
57309;SDS011;43153;50.984;18.204;2023-02-19T19:03:19;10.00;;;2.00;;
57309;SDS011;43153;50.984;18.204;2023-02-19T19:06:00;13.10;;;2.00;;
57309;SDS011;43153;50.984;18.204;2023-02-19T19:08:35;8.30;;;2.10;;
57309;SDS011;43153;50.984;18.204;2023-02-19T19:11:15;9.70;;;2.20;;
57309;SDS011;43153;50.984;18.204;2023-02-19T19:14:19;12.30;;;2.10;;
57309;SDS011;43153;50.984;18.204;2023-02-19T19:16:52;13.20;;;2.70;;
57309;SDS011;43153;50.984;18.204;2023-02-19T19:19:38;14.60;;;3.30;;
57309;SDS011;43153;50.984;18.204;2023-02-19T19:22:10;8.00;;;1.80;;
57309;SDS011;43153;50.984;18.204;2023-02-19T19:24:41;11.40;;;2.00;;
57309;SDS011;43153;50.984;18.204;2023-02-19T19:27:07;7.10;;;1.40;;
57309;SDS011;43153;50.984;18.204;2023-02-19T19:29:38;11.60;;;1.70;;
57309;SDS011;43153;50.984;18.204;2023-02-19T19:32:08;9.50;;;1.80;;
57309;SDS011;43153;50.984;18.204;2023-02-19T19:34:42;13.30;;;1.80;;
57309;SDS011;43153;50.984;18.204;2023-02-19T19:37:22;9.50;;;1.50;;
57309;SDS011;43153;50.984;18.204;2023-02-19T19:39:49;7.30;;;1.70;;
57309;SDS011;43153;50.984;18.204;2023-02-19T19:42:22;8.60;;;1.90;;
57309;SDS011;43153;50.984;18.204;2023-02-19T19:44:53;9.10;;;2.10;;
57309;SDS011;43153;50.984;18.204;2023-02-19T19:47:24;9.30;;;2.00;;
57309;SDS011;43153;50.984;18.204;2023-02-19T19:49:53;10.30;;;2.10;;
57309;SDS011;43153;50.984;18.204;2023-02-19T19:52:19;9.60;;;1.60;;
57309;SDS011;43153;50.984;18.204;2023-02-19T19:54:46;10.80;;;2.40;;
57309;SDS011;43153;50.984;18.204;2023-02-19T19:57:12;7.90;;;1.60;;
57309;SDS011;43153;50.984;18.204;2023-02-19T19:59:47;7.30;;;1.80;;